Time;durP1;ratioP1;P1;durP2;ratioP2;P2;SDS_P1;SDS_P2;PMS_P1;PMS_P2;Temp;Humidity;BMP_temperature;BMP_pressure;BME280_temperature;BME280_humidity;BME280_pressure;Samples;Min_cycle;Max_cycle;Signal;HPM_P1;HPM_P2
2022/09/15 00:00:06;;;;;;;;;;;;;;;;;;5080685;28;1432;-66
2022/09/15 00:02:31;;;;;;;;;;;;;;;;;;5080092;28;1906;-66
2022/09/15 00:04:56;;;;;;;;;;;;;;;;;;5074745;28;1542;-66
2022/09/15 00:07:22;;;;;;;;;;;;;;;;;;5075644;28;1613;-66
2022/09/15 00:09:48;;;;;;;;;;;;;;;;;;5050914;28;1610;-66
2022/09/15 00:12:13;;;;;;;;;;;;;;;;;;5079486;28;1129;-66
2022/09/15 00:14:38;;;;;;;;;;;;;;;;;;5079426;28;1427;-66
2022/09/15 00:17:03;;;;;;;;;;;;;;;;;;5077525;28;1590;-66
2022/09/15 00:19:28;;;;;;;;;;;;;;;;;;5079362;28;1360;-66
2022/09/15 00:21:53;;;;;;;;;;;;;;;;;;5075983;28;1894;-66
2022/09/15 00:24:19;;;;;;;;;;;;;;;;;;5071143;28;1648;-66
2022/09/15 00:26:44;;;;;;;;;;;;;;;;;;5091688;28;1499;-66
2022/09/15 00:29:09;;;;;;;;;;;;;;;;;;5062595;28;1322;-66
2022/09/15 00:31:34;;;;;;;;;;;;;;;;;;5075899;28;1661;-66
2022/09/15 00:34:03;;;;;;;;;;;;;;;;;;5069812;28;1549;-66
2022/09/15 00:36:29;;;;;;;;;;;;;;;;;;5073325;28;1295;-66
2022/09/15 00:38:54;;;;;;;;;;;;;;;;;;5100808;28;910;-66
2022/09/15 00:41:20;;;;;;;;;;;;;;;;;;5100678;28;1893;-66
2022/09/15 00:43:48;;;;;;;;;;;;;;;;;;5081140;28;1453;-66
2022/09/15 00:46:14;;;;;;;;;;;;;;;;;;5076277;28;1474;-66
2022/09/15 00:48:50;;;;;;;;;;;;;;;;;;5076694;28;1466;-67
2022/09/15 00:51:17;;;;;;;;;;;;;;;;;;5083397;28;1311;-67
2022/09/15 00:53:43;;;;;;;;;;;;;;;;;;5082522;28;1594;-66
2022/09/15 00:56:10;;;;;;;;;;;;;;;;;;5074600;28;1211;-66
2022/09/15 00:58:38;;;;;;;;;;;;;;;;;;5083667;28;1398;-66
2022/09/15 01:01:04;;;;;;;;;;;;;;;;;;5081672;28;1901;-66
2022/09/15 01:03:31;;;;;;;;;;;;;;;;;;5082391;28;1491;-66
2022/09/15 01:05:59;;;;;;;;;;;;;;;;;;5068364;28;1126;-66
2022/09/15 01:08:37;;;;;;;;;;;;;;;;;;5063451;28;819;-66
2022/09/15 01:11:02;;;;;;;;;;;;;;;;;;5084073;28;1471;-67
2022/09/15 01:13:28;;;;;;;;;;;;;;;;;;5094404;28;1398;-67
2022/09/15 01:15:56;;;;;;;;;;;;;;;;;;5103164;28;943;-66
2022/09/15 01:18:33;;;;;;;;;;;;;;;;;;5073100;28;1490;-66
2022/09/15 01:21:13;;;;;;;;;;;;;;;;;;5073865;28;1881;-67
2022/09/15 01:23:46;;;;;;;;;;;;;;;;;;5082869;28;1514;-67
2022/09/15 01:26:18;;;;;;;;;;;;;;;;;;5081671;28;1507;-67
2022/09/15 01:29:03;;;;;;;;;;;;;;;;;;5082693;28;1396;-67
2022/09/15 01:31:33;;;;;;;;;;;;;;;;;;5081968;28;1600;-67
2022/09/15 01:34:07;;;;;;;;;;;;;;;;;;5081868;28;1505;-67
2022/09/15 01:36:36;;;;;;;;;;;;;;;;;;5078606;28;1434;-67
2022/09/15 01:39:09;;;;;;;;;;;;;;;;;;5082387;28;1589;-67
2022/09/15 01:41:53;;;;;;;;;;;;;;;;;;5082716;28;2007;-67
2022/09/15 01:44:22;;;;;;;;;;;;;;;;;;5081780;28;1423;-67
2022/09/15 01:46:51;;;;;;;;;;;;;;;;;;5079162;28;1280;-67
2022/09/15 01:49:18;;;;;;;;;;;;;;;;;;5081960;28;1277;-67
2022/09/15 01:51:45;;;;;;;;;;;;;;;;;;5074484;28;1229;-67
2022/09/15 01:54:11;;;;;;;;;;;;;;;;;;5064764;28;1262;-67
2022/09/15 01:56:37;;;;;;;;;;;;;;;;;;5063738;28;1487;-67
2022/09/15 01:59:02;;;;;;;;;;;;;;;;;;5082407;28;1462;-67
2022/09/15 02:01:31;;;;;;;;;;;;;;;;;;5084891;28;1962;-67
2022/09/15 02:04:05;;;;;;;;;;;;;;;;;;5081540;28;1355;-68
2022/09/15 02:06:38;;;;;;;;;;;;;;;;;;5074735;28;1078;-68
2022/09/15 02:09:11;;;;;;;;;;;;;;;;;;5084775;28;1468;-68
2022/09/15 02:11:39;;;;;;;;;;;;;;;;;;5102906;28;819;-68
2022/09/15 02:14:09;;;;;;;;;;;;;;;;;;5087869;28;1489;-68
2022/09/15 02:16:34;;;;;;;;;;;;;;;;;;5078861;28;1449;-68
2022/09/15 02:18:59;;;;;;;;;;;;;;;;;;5081561;28;1271;-67
2022/09/15 02:21:32;;;;;;;;;;;;;;;;;;5087158;28;1890;-68
2022/09/15 02:24:02;;;;;;;;;;;;;;;;;;5099455;28;1522;-68
2022/09/15 02:26:28;;;;;;;;;;;;;;;;;;5081103;28;1401;-68
2022/09/15 02:28:54;;;;;;;;;;;;;;;;;;5082202;28;902;-67
2022/09/15 02:31:21;;;;;;;;;;;;;;;;;;5081283;28;1481;-68
2022/09/15 02:33:49;;;;;;;;;;;;;;;;;;5080846;28;1254;-68
2022/09/15 02:36:16;;;;;;;;;;;;;;;;;;5081283;28;1199;-68
2022/09/15 02:38:44;;;;;;;;;;;;;;;;;;5082242;28;1428;-67
2022/09/15 02:41:12;;;;;;;;;;;;;;;;;;5082177;28;1914;-67
2022/09/15 02:43:43;;;;;;;;;;;;;;;;;;5081845;28;1505;-67
2022/09/15 02:46:08;;;;;;;;;;;;;;;;;;5076287;28;1554;-67
2022/09/15 02:48:34;;;;;;;;;;;;;;;;;;5080598;28;1415;-67
2022/09/15 02:51:00;;;;;;;;;;;;;;;;;;5081298;28;1426;-65
2022/09/15 02:53:25;;;;;;;;;;;;;;;;;;5084580;28;1466;-65
2022/09/15 02:55:50;;;;;;;;;;;;;;;;;;5101311;28;925;-65
2022/09/15 02:58:15;;;;;;;;;;;;;;;;;;5084203;28;1402;-65
2022/09/15 03:00:41;;;;;;;;;;;;;;;;;;5080554;28;1661;-66
2022/09/15 03:03:07;;;;;;;;;;;;;;;;;;5078647;28;1922;-66
2022/09/15 03:05:32;;;;;;;;;;;;;;;;;;5076226;28;1318;-66
2022/09/15 03:07:57;;;;;;;;;;;;;;;;;;5079894;28;1405;-66
2022/09/15 03:10:23;;;;;;;;;;;;;;;;;;5081155;28;1231;-66
2022/09/15 03:12:49;;;;;;;;;;;;;;;;;;5081000;28;1426;-65
2022/09/15 03:15:16;;;;;;;;;;;;;;;;;;5077487;28;1586;-66
2022/09/15 03:17:42;;;;;;;;;;;;;;;;;;5077754;28;1114;-65
2022/09/15 03:20:08;;;;;;;;;;;;;;;;;;5079894;28;1246;-65
2022/09/15 03:22:34;;;;;;;;;;;;;;;;;;5073201;28;1893;-65
2022/09/15 03:25:00;;;;;;;;;;;;;;;;;;5080668;28;1157;-66
2022/09/15 03:27:25;;;;;;;;;;;;;;;;;;5080963;28;1418;-66
2022/09/15 03:29:51;;;;;;;;;;;;;;;;;;5073192;28;1577;-66
2022/09/15 03:32:16;;;;;;;;;;;;;;;;;;5077319;28;1232;-66
2022/09/15 03:34:41;;;;;;;;;;;;;;;;;;5066065;28;1447;-65
2022/09/15 03:37:06;;;;;;;;;;;;;;;;;;5072412;28;1128;-66
2022/09/15 03:39:31;;;;;;;;;;;;;;;;;;5081462;28;870;-66
2022/09/15 03:41:57;;;;;;;;;;;;;;;;;;5080214;28;1890;-65
2022/09/15 03:44:22;;;;;;;;;;;;;;;;;;5076425;28;1601;-66
2022/09/15 03:46:47;;;;;;;;;;;;;;;;;;5073392;28;1287;-66
2022/09/15 03:49:12;;;;;;;;;;;;;;;;;;5080792;28;1236;-65
2022/09/15 03:51:37;;;;;;;;;;;;;;;;;;5076138;28;1604;-66
2022/09/15 03:54:03;;;;;;;;;;;;;;;;;;5071763;28;1276;-66
2022/09/15 03:56:32;;;;;;;;;;;;;;;;;;5087818;28;1462;-66
2022/09/15 03:58:58;;;;;;;;;;;;;;;;;;5079494;28;1633;-66
2022/09/15 04:01:23;;;;;;;;;;;;;;;;;;5072903;28;1894;-66
2022/09/15 04:03:48;;;;;;;;;;;;;;;;;;5081182;28;1242;-66
2022/09/15 04:06:14;;;;;;;;;;;;;;;;;;5078757;28;1475;-66
2022/09/15 04:08:39;;;;;;;;;;;;;;;;;;5081006;28;1239;-66
2022/09/15 04:11:05;;;;;;;;;;;;;;;;;;5080108;28;1489;-66
2022/09/15 04:13:30;;;;;;;;;;;;;;;;;;5076833;28;1450;-67
2022/09/15 04:15:56;;;;;;;;;;;;;;;;;;5075038;28;1283;-67
2022/09/15 04:18:21;;;;;;;;;;;;;;;;;;5061322;28;1201;-67
2022/09/15 04:20:46;;;;;;;;;;;;;;;;;;5076098;28;1573;-67
2022/09/15 04:23:12;;;;;;;;;;;;;;;;;;5079510;28;1943;-67
2022/09/15 04:25:37;;;;;;;;;;;;;;;;;;5094349;28;1360;-67
2022/09/15 04:28:03;;;;;;;;;;;;;;;;;;5081968;28;1327;-67
2022/09/15 04:30:28;;;;;;;;;;;;;;;;;;5070279;28;1511;-67
2022/09/15 04:32:53;;;;;;;;;;;;;;;;;;5077626;28;1327;-67
2022/09/15 04:35:20;;;;;;;;;;;;;;;;;;5082814;28;1455;-67
2022/09/15 04:37:46;;;;;;;;;;;;;;;;;;5075684;28;949;-66
2022/09/15 04:40:11;;;;;;;;;;;;;;;;;;5065441;28;1130;-67
2022/09/15 04:42:36;;;;;;;;;;;;;;;;;;5083815;28;1952;-66
2022/09/15 04:45:02;;;;;;;;;;;;;;;;;;5082608;28;1562;-67
2022/09/15 04:47:27;;;;;;;;;;;;;;;;;;5082611;28;1632;-67
2022/09/15 04:49:52;;;;;;;;;;;;;;;;;;5067791;28;1372;-67
2022/09/15 04:52:17;;;;;;;;;;;;;;;;;;5078082;28;1672;-66
2022/09/15 04:54:43;;;;;;;;;;;;;;;;;;5079734;28;1278;-67
2022/09/15 04:57:08;;;;;;;;;;;;;;;;;;5081750;28;1286;-67
2022/09/15 04:59:33;;;;;;;;;;;;;;;;;;5083682;28;1199;-67
2022/09/15 05:01:59;;;;;;;;;;;;;;;;;;5079449;28;1956;-66
2022/09/15 05:04:24;;;;;;;;;;;;;;;;;;5082479;28;1503;-66
2022/09/15 05:06:49;;;;;;;;;;;;;;;;;;5082031;28;1391;-66
2022/09/15 05:09:14;;;;;;;;;;;;;;;;;;5083634;28;877;-66
2022/09/15 05:11:40;;;;;;;;;;;;;;;;;;5083552;28;1411;-66
2022/09/15 05:14:05;;;;;;;;;;;;;;;;;;5083028;28;1526;-66
2022/09/15 05:16:30;;;;;;;;;;;;;;;;;;5082503;28;1379;-66
2022/09/15 05:18:57;;;;;;;;;;;;;;;;;;5083176;28;1344;-64
2022/09/15 05:21:22;;;;;;;;;;;;;;;;;;5083030;28;1906;-67
2022/09/15 05:23:49;;;;;;;;;;;;;;;;;;5078617;28;1550;-69
2022/09/15 05:26:15;;;;;;;;;;;;;;;;;;5074178;28;1163;-71
2022/09/15 05:28:40;;;;;;;;;;;;;;;;;;5082389;28;1630;-69
2022/09/15 05:31:07;;;;;;;;;;;;;;;;;;5071699;28;1295;-68
2022/09/15 05:33:33;;;;;;;;;;;;;;;;;;5083064;28;1435;-69
2022/09/15 05:35:59;;;;;;;;;;;;;;;;;;5053420;28;1375;-69
2022/09/15 05:38:24;;;;;;;;;;;;;;;;;;5069752;28;1534;-69
2022/09/15 05:40:50;;;;;;;;;;;;;;;;;;5078034;28;1535;-68
2022/09/15 05:43:16;;;;;;;;;;;;;;;;;;5084407;28;1890;-69
2022/09/15 05:45:41;;;;;;;;;;;;;;;;;;5091008;22;3628;-66
2022/09/15 05:48:06;;;;;;;;;;;;;;;;;;5074734;28;1217;-67
2022/09/15 05:50:32;;;;;;;;;;;;;;;;;;5077264;28;1581;-67
2022/09/15 05:52:57;;;;;;;;;;;;;;;;;;5079194;28;1171;-67
2022/09/15 05:55:22;;;;;;;;;;;;;;;;;;5081999;28;1507;-67
2022/09/15 05:57:47;;;;;;;;;;;;;;;;;;5081580;28;1490;-67
2022/09/15 06:00:13;;;;;;;;;;;;;;;;;;5081933;28;1295;-66
2022/09/15 06:02:38;;;;;;;;;;;;;;;;;;5082281;28;1913;-66
2022/09/15 06:05:03;;;;;;;;;;;;;;;;;;5080794;28;1353;-66
2022/09/15 06:07:28;;;;;;;;;;;;;;;;;;5082319;28;1178;-66
2022/09/15 06:09:54;;;;;;;;;;;;;;;;;;5073878;28;1600;-66
2022/09/15 06:12:20;;;;;;;;;;;;;;;;;;5081354;28;1279;-66
2022/09/15 06:14:49;;;;;;;;;;;;;;;;;;5073141;28;1278;-66
2022/09/15 06:17:14;;;;;;;;;;;;;;;;;;5081643;28;1240;-66
2022/09/15 06:19:39;;;;;;;;;;;;;;;;;;5081622;28;1331;-67
2022/09/15 06:22:04;;;;;;;;;;;;;;;;;;5082085;28;1972;-66
2022/09/15 06:24:30;;;;;;;;;;;;;;;;;;5081598;28;1614;-66
2022/09/15 06:26:55;;;;;;;;;;;;;;;;;;5081708;28;1593;-66
2022/09/15 06:29:20;;;;;;;;;;;;;;;;;;5074768;28;1465;-66
2022/09/15 06:31:45;;;;;;;;;;;;;;;;;;5072797;28;1660;-66
2022/09/15 06:34:10;;;;;;;;;;;;;;;;;;5080447;28;1188;-66
2022/09/15 06:36:36;;;;;;;;;;;;;;;;;;5079422;28;1632;-66
2022/09/15 06:39:02;;;;;;;;;;;;;;;;;;5081692;28;1221;-66
2022/09/15 06:41:30;;;;;;;;;;;;;;;;;;5082153;28;1957;-66
2022/09/15 06:43:55;;;;;;;;;;;;;;;;;;5069140;28;1683;-66
2022/09/15 06:46:24;;;;;;;;;;;;;;;;;;5060363;28;1407;-66
2022/09/15 06:48:52;;;;;;;;;;;;;;;;;;5081935;28;1123;-66
2022/09/15 06:51:19;;;;;;;;;;;;;;;;;;5080467;28;1510;-66
2022/09/15 06:53:44;;;;;;;;;;;;;;;;;;5082032;28;1076;-66
2022/09/15 06:56:11;;;;;;;;;;;;;;;;;;5081114;28;1502;-66
2022/09/15 06:58:37;;;;;;;;;;;;;;;;;;5072819;28;1597;-66
2022/09/15 07:01:04;;;;;;;;;;;;;;;;;;5080703;28;1901;-66
2022/09/15 07:03:29;;;;;;;;;;;;;;;;;;5081160;28;1679;-66
2022/09/15 07:05:54;;;;;;;;;;;;;;;;;;5079403;28;1475;-66
2022/09/15 07:08:19;;;;;;;;;;;;;;;;;;5076053;28;1287;-66
2022/09/15 07:10:45;;;;;;;;;;;;;;;;;;5079300;28;1454;-67
2022/09/15 07:13:10;;;;;;;;;;;;;;;;;;5081657;28;1148;-66
2022/09/15 07:15:36;;;;;;;;;;;;;;;;;;5079541;28;1590;-66
2022/09/15 07:18:01;;;;;;;;;;;;;;;;;;5079571;28;1279;-66
2022/09/15 07:20:26;;;;;;;;;;;;;;;;;;5079281;28;1398;-66
2022/09/15 07:22:52;;;;;;;;;;;;;;;;;;5081340;28;1901;-66
2022/09/15 07:25:17;;;;;;;;;;;;;;;;;;5076751;28;1422;-66
2022/09/15 07:27:42;;;;;;;;;;;;;;;;;;5074655;28;1275;-66
2022/09/15 07:30:07;;;;;;;;;;;;;;;;;;5077151;28;1474;-66
2022/09/15 07:32:33;;;;;;;;;;;;;;;;;;5080290;28;1438;-66
2022/09/15 07:34:58;;;;;;;;;;;;;;;;;;5079300;28;1342;-66
2022/09/15 07:37:23;;;;;;;;;;;;;;;;;;5079529;28;1532;-65
2022/09/15 07:39:49;;;;;;;;;;;;;;;;;;5076866;28;1310;-66
2022/09/15 07:42:14;;;;;;;;;;;;;;;;;;5081283;28;1901;-66
2022/09/15 07:44:39;;;;;;;;;;;;;;;;;;5080208;28;1251;-66
2022/09/15 07:47:04;;;;;;;;;;;;;;;;;;5079684;28;1557;-66
2022/09/15 07:49:29;;;;;;;;;;;;;;;;;;5071603;28;1357;-66
2022/09/15 07:51:55;;;;;;;;;;;;;;;;;;5080746;28;1267;-65
2022/09/15 07:54:20;;;;;;;;;;;;;;;;;;5067481;28;1286;-66
2022/09/15 07:56:45;;;;;;;;;;;;;;;;;;5060211;28;1119;-66
2022/09/15 07:59:10;;;;;;;;;;;;;;;;;;5074933;28;1620;-66
2022/09/15 08:01:35;;;;;;;;;;;;;;;;;;5083299;28;1893;-66
2022/09/15 08:04:00;;;;;;;;;;;;;;;;;;5082569;28;1322;-66
2022/09/15 08:06:26;;;;;;;;;;;;;;;;;;5083670;28;1245;-66
2022/09/15 08:08:51;;;;;;;;;;;;;;;;;;5066330;28;1499;-66
2022/09/15 08:11:18;;;;;;;;;;;;;;;;;;5083419;28;1521;-66
2022/09/15 08:13:43;;;;;;;;;;;;;;;;;;5084309;28;1159;-66
2022/09/15 08:16:12;;;;;;;;;;;;;;;;;;5082530;28;1439;-66
2022/09/15 08:18:38;;;;;;;;;;;;;;;;;;5083064;28;1225;-66
2022/09/15 08:21:04;;;;;;;;;;;;;;;;;;5084172;28;1968;-66
2022/09/15 08:23:29;;;;;;;;;;;;;;;;;;5084454;28;1455;-66
2022/09/15 08:25:54;;;;;;;;;;;;;;;;;;5083340;28;1328;-66
2022/09/15 08:28:20;;;;;;;;;;;;;;;;;;5082152;28;1585;-66
2022/09/15 08:30:45;;;;;;;;;;;;;;;;;;5080703;28;1363;-66
2022/09/15 08:33:10;;;;;;;;;;;;;;;;;;5082887;28;1287;-66
2022/09/15 08:35:35;;;;;;;;;;;;;;;;;;5077261;28;1601;-66
2022/09/15 08:38:00;;;;;;;;;;;;;;;;;;5080661;28;1160;-66
2022/09/15 08:40:29;;;;;;;;;;;;;;;;;;5083696;28;1495;-66
2022/09/15 08:42:56;;;;;;;;;;;;;;;;;;5083076;28;1952;-66
2022/09/15 08:45:23;;;;;;;;;;;;;;;;;;5080205;28;1231;-67
2022/09/15 08:47:54;;;;;;;;;;;;;;;;;;5082941;28;1276;-67
2022/09/15 08:50:29;;;;;;;;;;;;;;;;;;5065544;28;1108;-66
2022/09/15 08:53:00;;;;;;;;;;;;;;;;;;5082946;28;1431;-66
2022/09/15 08:55:35;;;;;;;;;;;;;;;;;;5072680;28;1425;-66
2022/09/15 08:58:00;;;;;;;;;;;;;;;;;;5082293;28;1654;-66
2022/09/15 09:00:26;;;;;;;;;;;;;;;;;;5079946;28;1506;-66
2022/09/15 09:03:02;;;;;;;;;;;;;;;;;;5079094;28;1955;-67
2022/09/15 09:05:46;;;;;;;;;;;;;;;;;;5077114;28;1582;-66
2022/09/15 09:08:31;;;;;;;;;;;;;;;;;;5083418;28;1212;-66
2022/09/15 09:11:15;;;;;;;;;;;;;;;;;;5080698;28;1592;-66
2022/09/15 09:13:52;;;;;;;;;;;;;;;;;;5082563;28;1130;-66
2022/09/15 09:16:30;;;;;;;;;;;;;;;;;;5078715;28;1351;-66
2022/09/15 09:18:58;;;;;;;;;;;;;;;;;;5083318;28;1112;-67
2022/09/15 09:21:26;;;;;;;;;;;;;;;;;;5081838;28;1898;-66
2022/09/15 09:24:02;;;;;;;;;;;;;;;;;;5083223;28;1120;-66
2022/09/15 09:26:29;;;;;;;;;;;;;;;;;;5081646;28;1653;-66
2022/09/15 09:28:57;;;;;;;;;;;;;;;;;;5080962;28;1598;-66
2022/09/15 09:31:23;;;;;;;;;;;;;;;;;;5060349;28;1205;-66
2022/09/15 09:33:58;;;;;;;;;;;;;;;;;;5075216;28;1235;-66
2022/09/15 09:36:29;;;;;;;;;;;;;;;;;;5079969;28;1499;-66
2022/09/15 09:38:54;;;;;;;;;;;;;;;;;;5083062;28;1258;-66
2022/09/15 09:41:24;;;;;;;;;;;;;;;;;;5073825;28;1898;-66
2022/09/15 09:43:50;;;;;;;;;;;;;;;;;;5081831;28;1240;-66
2022/09/15 09:46:17;;;;;;;;;;;;;;;;;;5079228;28;1783;-66
2022/09/15 09:48:44;;;;;;;;;;;;;;;;;;5062976;28;1458;-66
2022/09/15 09:51:28;;;;;;;;;;;;;;;;;;5074210;28;1541;-66
2022/09/15 09:53:53;;;;;;;;;;;;;;;;;;5082116;28;1597;-66
2022/09/15 09:56:23;;;;;;;;;;;;;;;;;;5073824;28;1275;-66
2022/09/15 09:58:49;;;;;;;;;;;;;;;;;;5081193;28;1495;-66
2022/09/15 10:01:15;;;;;;;;;;;;;;;;;;5063593;28;1902;-66
2022/09/15 10:03:42;;;;;;;;;;;;;;;;;;5079384;28;1751;-66
2022/09/15 10:06:15;;;;;;;;;;;;;;;;;;5081731;28;1254;-66
2022/09/15 10:08:52;;;;;;;;;;;;;;;;;;5081625;28;1582;-66
2022/09/15 10:11:17;;;;;;;;;;;;;;;;;;5074081;28;1224;-66
2022/09/15 10:13:50;;;;;;;;;;;;;;;;;;5079834;28;1647;-66
2022/09/15 10:16:17;;;;;;;;;;;;;;;;;;5078264;28;1378;-66
2022/09/15 10:18:42;;;;;;;;;;;;;;;;;;5082409;28;1147;-66
2022/09/15 10:21:08;;;;;;;;;;;;;;;;;;5078301;28;1961;-66
2022/09/15 10:23:33;;;;;;;;;;;;;;;;;;5081482;28;1268;-67
2022/09/15 10:26:14;;;;;;;;;;;;;;;;;;5081369;28;1243;-67
2022/09/15 10:28:39;;;;;;;;;;;;;;;;;;5066596;28;1314;-67
2022/09/15 10:31:09;;;;;;;;;;;;;;;;;;5077711;28;1672;-67
2022/09/15 10:33:40;;;;;;;;;;;;;;;;;;5082342;28;1120;-67
2022/09/15 10:36:10;;;;;;;;;;;;;;;;;;5079351;28;1800;-67
2022/09/15 10:38:40;;;;;;;;;;;;;;;;;;5076099;28;1551;-67
2022/09/15 10:41:21;;;;;;;;;;;;;;;;;;5081857;28;1902;-67
2022/09/15 10:43:52;;;;;;;;;;;;;;;;;;5061764;28;1479;-67
2022/09/15 10:46:24;;;;;;;;;;;;;;;;;;5071819;28;1333;-67
2022/09/15 10:48:55;;;;;;;;;;;;;;;;;;5081822;28;1187;-67
2022/09/15 10:51:39;;;;;;;;;;;;;;;;;;5081632;28;1832;-67
2022/09/15 10:54:13;;;;;;;;;;;;;;;;;;5079227;28;1183;-67
2022/09/15 10:56:44;;;;;;;;;;;;;;;;;;5079381;28;1494;-67
2022/09/15 10:59:12;;;;;;;;;;;;;;;;;;5079677;28;1359;-67
2022/09/15 11:01:45;;;;;;;;;;;;;;;;;;5081514;28;1893;-67
2022/09/15 11:04:22;;;;;;;;;;;;;;;;;;5081812;28;1088;-67
2022/09/15 11:06:52;;;;;;;;;;;;;;;;;;5079966;28;1589;-66
2022/09/15 11:09:23;;;;;;;;;;;;;;;;;;5081237;28;1396;-66
2022/09/15 11:11:49;;;;;;;;;;;;;;;;;;5081370;28;1502;-66
2022/09/15 11:14:15;;;;;;;;;;;;;;;;;;5080584;28;1649;-66
2022/09/15 11:16:40;;;;;;;;;;;;;;;;;;5079608;28;1298;-66
2022/09/15 11:19:31;;;;;;;;;;;;;;;;;;5081580;28;1242;-66
2022/09/15 11:22:00;;;;;;;;;;;;;;;;;;5081059;28;1970;-66
2022/09/15 11:24:41;;;;;;;;;;;;;;;;;;5077341;28;1668;-66
2022/09/15 11:27:15;;;;;;;;;;;;;;;;;;5078943;28;1227;-66
2022/09/15 11:29:46;;;;;;;;;;;;;;;;;;5080107;28;1620;-66
2022/09/15 11:32:16;;;;;;;;;;;;;;;;;;5078724;28;1228;-66
2022/09/15 11:34:45;;;;;;;;;;;;;;;;;;5080725;28;1259;-66
2022/09/15 11:37:13;;;;;;;;;;;;;;;;;;5081181;28;1440;-66
2022/09/15 11:39:59;;;;;;;;;;;;;;;;;;5079040;28;1605;-66
2022/09/15 11:42:24;;;;;;;;;;;;;;;;;;5073551;28;1949;-66
2022/09/15 11:44:51;;;;;;;;;;;;;;;;;;5077942;28;1636;-64
2022/09/15 11:47:26;;;;;;;;;;;;;;;;;;5072465;22;3733;-66
2022/09/15 11:49:54;;;;;;;;;;;;;;;;;;5045486;28;1144;-69
2022/09/15 11:52:28;;;;;;;;;;;;;;;;;;5052942;28;1433;-69
2022/09/15 11:54:59;;;;;;;;;;;;;;;;;;5033859;28;1645;-69
2022/09/15 11:57:27;;;;;;;;;;;;;;;;;;5041149;28;1228;-69
2022/09/15 11:59:58;;;;;;;;;;;;;;;;;;5055373;28;1637;-69
2022/09/15 12:02:27;;;;;;;;;;;;;;;;;;5063780;28;1995;-69
2022/09/15 12:05:16;;;;;;;;;;;;;;;;;;5062031;28;1367;-69
2022/09/15 12:07:53;;;;;;;;;;;;;;;;;;5063557;28;1295;-69
2022/09/15 12:10:38;;;;;;;;;;;;;;;;;;5062990;28;1311;-66
2022/09/15 12:13:04;;;;;;;;;;;;;;;;;;5063014;28;1191;-67
2022/09/15 12:15:30;;;;;;;;;;;;;;;;;;5041626;28;1612;-67
2022/09/15 12:17:58;;;;;;;;;;;;;;;;;;5068867;28;1258;-67
2022/09/15 12:20:26;;;;;;;;;;;;;;;;;;5050952;28;1361;-66
2022/09/15 12:23:04;;;;;;;;;;;;;;;;;;5041345;28;1891;-68
2022/09/15 12:25:39;;;;;;;;;;;;;;;;;;5060729;28;1319;-67
2022/09/15 12:28:23;;;;;;;;;;;;;;;;;;5061185;28;1542;-68
2022/09/15 12:31:08;;;;;;;;;;;;;;;;;;5064494;28;1324;-67
2022/09/15 12:33:55;;;;;;;;;;;;;;;;;;5061218;28;1434;-67
2022/09/15 12:36:59;;;;;;;;;;;;;;;;;;5058330;28;1380;-67
2022/09/15 12:39:27;;;;;;;;;;;;;;;;;;4979696;28;1583;-67
2022/09/15 12:41:58;;;;;;;;;;;;;;;;;;4994430;28;1902;-67
2022/09/15 12:44:43;;;;;;;;;;;;;;;;;;5016824;28;1581;-67
2022/09/15 12:47:27;;;;;;;;;;;;;;;;;;5065134;28;1383;-67
2022/09/15 12:49:54;;;;;;;;;;;;;;;;;;5066244;28;1343;-67
2022/09/15 12:52:21;;;;;;;;;;;;;;;;;;5055079;28;1310;-67
2022/09/15 12:55:04;;;;;;;;;;;;;;;;;;5069802;28;1522;-67
2022/09/15 12:57:32;;;;;;;;;;;;;;;;;;5059662;28;1200;-67
2022/09/15 13:00:17;;;;;;;;;;;;;;;;;;5071927;28;1476;-67
2022/09/15 13:02:44;;;;;;;;;;;;;;;;;;5038464;28;1961;-68
2022/09/15 13:05:10;;;;;;;;;;;;;;;;;;5071877;28;1303;-68
2022/09/15 13:07:50;;;;;;;;;;;;;;;;;;5069740;28;1681;-67
2022/09/15 13:10:25;;;;;;;;;;;;;;;;;;5072319;28;1342;-67
2022/09/15 13:12:54;;;;;;;;;;;;;;;;;;5053848;28;1354;-66
2022/09/15 13:15:22;;;;;;;;;;;;;;;;;;5060327;28;1409;-67
2022/09/15 13:17:47;;;;;;;;;;;;;;;;;;5070092;28;1400;-67
2022/09/15 13:20:18;;;;;;;;;;;;;;;;;;5072078;28;1334;-67
2022/09/15 13:22:46;;;;;;;;;;;;;;;;;;5077412;28;1976;-67
2022/09/15 13:25:14;;;;;;;;;;;;;;;;;;5071418;28;1471;-67
2022/09/15 13:27:39;;;;;;;;;;;;;;;;;;5068379;28;1677;-67
2022/09/15 13:30:08;;;;;;;;;;;;;;;;;;5046855;28;1284;-67
2022/09/15 13:32:33;;;;;;;;;;;;;;;;;;5072201;28;1384;-67
2022/09/15 13:35:07;;;;;;;;;;;;;;;;;;5081586;28;1474;-67
2022/09/15 13:37:38;;;;;;;;;;;;;;;;;;5083158;28;811;-67
2022/09/15 13:40:21;;;;;;;;;;;;;;;;;;5073558;28;1573;-67
2022/09/15 13:42:59;;;;;;;;;;;;;;;;;;5073554;28;1890;-68
2022/09/15 13:45:25;;;;;;;;;;;;;;;;;;5061530;28;1326;-67
2022/09/15 13:48:09;;;;;;;;;;;;;;;;;;5069996;28;1170;-68
2022/09/15 13:50:39;;;;;;;;;;;;;;;;;;5065949;28;1648;-68
2022/09/15 13:53:16;;;;;;;;;;;;;;;;;;5074316;28;1131;-67
2022/09/15 13:55:42;;;;;;;;;;;;;;;;;;5073539;28;1660;-68
2022/09/15 13:58:11;;;;;;;;;;;;;;;;;;5069556;28;1224;-67
2022/09/15 14:00:58;;;;;;;;;;;;;;;;;;5068888;28;1241;-67
2022/09/15 14:03:27;;;;;;;;;;;;;;;;;;5056585;28;1890;-67
2022/09/15 14:05:53;;;;;;;;;;;;;;;;;;5073496;28;1461;-67
2022/09/15 14:08:23;;;;;;;;;;;;;;;;;;5068672;28;1260;-67
2022/09/15 14:10:50;;;;;;;;;;;;;;;;;;5053026;28;1267;-67
2022/09/15 14:13:17;;;;;;;;;;;;;;;;;;5056079;28;1315;-67
2022/09/15 14:16:01;;;;;;;;;;;;;;;;;;5068798;28;1463;-68
2022/09/15 14:18:27;;;;;;;;;;;;;;;;;;5058129;28;1272;-68
2022/09/15 14:20:59;;;;;;;;;;;;;;;;;;5074060;28;1178;-67
2022/09/15 14:23:25;;;;;;;;;;;;;;;;;;5070862;28;1922;-67
2022/09/15 14:25:50;;;;;;;;;;;;;;;;;;5066140;28;1309;-67
2022/09/15 14:28:26;;;;;;;;;;;;;;;;;;5063928;28;1613;-68
2022/09/15 14:30:52;;;;;;;;;;;;;;;;;;5045430;28;1465;-68
2022/09/15 14:33:17;;;;;;;;;;;;;;;;;;5072602;28;1279;-68
2022/09/15 14:35:43;;;;;;;;;;;;;;;;;;5072014;28;1625;-68
2022/09/15 14:38:18;;;;;;;;;;;;;;;;;;5071013;28;1327;-68
2022/09/15 14:40:48;;;;;;;;;;;;;;;;;;5067665;28;1584;-68
2022/09/15 14:43:27;;;;;;;;;;;;;;;;;;5069162;28;1948;-68
2022/09/15 14:45:52;;;;;;;;;;;;;;;;;;5063368;28;1315;-68
2022/09/15 14:48:24;;;;;;;;;;;;;;;;;;5070464;28;1144;-68
2022/09/15 14:50:55;;;;;;;;;;;;;;;;;;5069032;28;1542;-67
2022/09/15 14:53:22;;;;;;;;;;;;;;;;;;5081705;28;1156;-67
2022/09/15 14:55:53;;;;;;;;;;;;;;;;;;5061427;28;1577;-68
2022/09/15 14:58:21;;;;;;;;;;;;;;;;;;5063222;28;1579;-67
2022/09/15 15:00:49;;;;;;;;;;;;;;;;;;5066318;28;1204;-67
2022/09/15 15:03:20;;;;;;;;;;;;;;;;;;5071769;28;1890;-67
2022/09/15 15:05:53;;;;;;;;;;;;;;;;;;5067711;28;1657;-67
2022/09/15 15:08:31;;;;;;;;;;;;;;;;;;5062530;28;1227;-67
2022/09/15 15:10:57;;;;;;;;;;;;;;;;;;5064913;28;1346;-67
2022/09/15 15:13:22;;;;;;;;;;;;;;;;;;5072019;28;1303;-67
2022/09/15 15:15:47;;;;;;;;;;;;;;;;;;5064890;28;1361;-67
2022/09/15 15:18:31;;;;;;;;;;;;;;;;;;5060821;28;1233;-66
2022/09/15 15:20:56;;;;;;;;;;;;;;;;;;5065362;28;1228;-66
2022/09/15 15:23:22;;;;;;;;;;;;;;;;;;5060048;28;1953;-67
2022/09/15 15:25:48;;;;;;;;;;;;;;;;;;5067207;28;1278;-67
2022/09/15 15:28:33;;;;;;;;;;;;;;;;;;5067784;28;1294;-68
2022/09/15 15:31:18;;;;;;;;;;;;;;;;;;5050399;28;1408;-67
2022/09/15 15:33:44;;;;;;;;;;;;;;;;;;5063036;28;1368;-68
2022/09/15 15:36:12;;;;;;;;;;;;;;;;;;5070112;28;1283;-67
2022/09/15 15:38:41;;;;;;;;;;;;;;;;;;5081321;28;862;-67
2022/09/15 15:41:07;;;;;;;;;;;;;;;;;;5077970;28;1392;-67
2022/09/15 15:43:33;;;;;;;;;;;;;;;;;;5060164;28;1953;-68
2022/09/15 15:46:02;;;;;;;;;;;;;;;;;;5060019;28;1374;-67
2022/09/15 15:48:28;;;;;;;;;;;;;;;;;;5061603;28;1217;-68
2022/09/15 15:50:54;;;;;;;;;;;;;;;;;;5042717;28;1562;-68
2022/09/15 15:53:20;;;;;;;;;;;;;;;;;;5071662;28;1106;-68
2022/09/15 15:55:45;;;;;;;;;;;;;;;;;;5061674;28;1533;-68
2022/09/15 15:58:11;;;;;;;;;;;;;;;;;;5069100;28;1045;-68
2022/09/15 16:00:39;;;;;;;;;;;;;;;;;;5062233;28;1032;-68
2022/09/15 16:03:05;;;;;;;;;;;;;;;;;;5060257;28;1914;-68
2022/09/15 16:05:30;;;;;;;;;;;;;;;;;;5060061;28;1199;-68
2022/09/15 16:07:58;;;;;;;;;;;;;;;;;;5060536;28;1526;-68
2022/09/15 16:10:26;;;;;;;;;;;;;;;;;;5047734;28;803;-68
2022/09/15 16:12:52;;;;;;;;;;;;;;;;;;5059601;28;1522;-70
2022/09/15 16:15:18;;;;;;;;;;;;;;;;;;5052458;28;1357;-70
2022/09/15 16:17:44;;;;;;;;;;;;;;;;;;5069259;28;1148;-70
2022/09/15 16:20:09;;;;;;;;;;;;;;;;;;5089296;28;1107;-70
2022/09/15 16:22:34;;;;;;;;;;;;;;;;;;5072666;28;1886;-73
2022/09/15 16:25:00;;;;;;;;;;;;;;;;;;5068706;28;1253;-70
2022/09/15 16:27:27;;;;;;;;;;;;;;;;;;5066962;28;1607;-71
2022/09/15 16:29:52;;;;;;;;;;;;;;;;;;5073392;28;1593;-70
2022/09/15 16:32:18;;;;;;;;;;;;;;;;;;5071874;28;1288;-70
2022/09/15 16:34:43;;;;;;;;;;;;;;;;;;5071006;28;1464;-70
2022/09/15 16:37:09;;;;;;;;;;;;;;;;;;5069760;28;1350;-70
2022/09/15 16:39:34;;;;;;;;;;;;;;;;;;5068677;28;1310;-70
2022/09/15 16:41:59;;;;;;;;;;;;;;;;;;5075773;28;1944;-70
2022/09/15 16:44:24;;;;;;;;;;;;;;;;;;5065443;28;1629;-69
2022/09/15 16:46:49;;;;;;;;;;;;;;;;;;5071566;28;1306;-69
2022/09/15 16:49:14;;;;;;;;;;;;;;;;;;5074783;28;1169;-69
2022/09/15 16:51:40;;;;;;;;;;;;;;;;;;5063867;28;850;-69
2022/09/15 16:54:16;;;;;;;;;;;;;;;;;;5063609;28;1606;-69
2022/09/15 16:56:42;;;;;;;;;;;;;;;;;;5068960;28;1343;-69
2022/09/15 16:59:07;;;;;;;;;;;;;;;;;;5062388;28;1467;-68
2022/09/15 17:01:32;;;;;;;;;;;;;;;;;;5067043;28;1894;-68
2022/09/15 17:03:58;;;;;;;;;;;;;;;;;;5068628;28;1335;-69
2022/09/15 17:06:23;;;;;;;;;;;;;;;;;;5071060;28;1250;-69
2022/09/15 17:08:48;;;;;;;;;;;;;;;;;;5068947;28;1551;-69
2022/09/15 17:11:14;;;;;;;;;;;;;;;;;;5074996;28;1206;-69